Airport ID:CZBM
Update Time (UTC):06/12/2022 10:18
Wind Speed (Knots):5
Wind Direction (Magnetic):200
Temperature (°C):6
Dew Point (°C):-5
Humidity (%):45
Altimeter (inHg):30.23
Density Altitude (Feet):
Visibility:10+
Clouds (Hundreds of feet):BKN130 OVC150
Present Weather:
METAR:METAR CZBM 061000Z AUTO 17005KT 140V210 10SM OVC130 06/M06 A3023 RMK PCPN MISG ICG MISG TS/LTNG TEMPO UNAVBL T00631062 SLP242=

The data displayed is for advisory purposes only and is not to be used for flight planning or operations.